Terminal Aerodrome Forecast
Issued by NWS

Home | Current Version | Previous Version | Text Only | Print | Product List | Glossary On
Versions: 1 2 3 4 5 6 7 8 9 10 11 12 13 14 15 16 17 18 19 20 21 22 23 24 25 26 27 28 29 30 31 32 33 34 35 36 37 38 39 40 41 42 43 44 45 46 47
000
FTUS43 KMKX 060520
TAFENW
TAF
KENW 060520Z 0606/0706 06004KT P6SM OVC006
     FM060800 07004KT 3SM BR OVC004
     FM061000 08004KT 2SM BR OVC003
      TEMPO 0610/0613 1SM BR
     FM061600 10005KT 5SM BR BKN015
     FM061800 11005KT P6SM SCT035
     FM070200 11004KT P6SM SCT200=

USA.gov is the U.S. government's official web portal to all federal, state and local government web resources and services.